Current Weather

Greater Kankakee

Kankakee, Illinois (KIKK)

Report from: Wednesday, May 29, 2024 4:15 AM CDT
Current time: Wednesday, May 29, 2024 4:43 AM CDT

Nearby weather – Weather history – Daily summaries
Weather forecast

Temperature13.2°C (55.8°F)
Dew point10.4°C (50.7°F)
Winds 13 kts (6.7 m/s, 15 mph) North (350°)
Visibility10 mi. (16.1 km)
Clouds Ceiling: Overcast 1,600 ft. (488 m)
Altimeter30.07 in.Hg (1018 mB)
Relative humidity83 %
Density altitude-206 ft. (-63 m)
Remarks Fully automated report
Automated weather observing station with precipitation discriminator
Present weather sensor not operating
Flight conditions Marginal Visual Meteorological Conditions
Raw dataKIKK 290915Z AUTO 35013KT 10SM OVC016 13/10 A3007 RMK AO2 T01320104 PWINO
An error has occurred. This application may no longer respond until reloaded. Reload 🗙